sensor_id;sensor_type;location;lat;lon;timestamp;pressure;altitude;pressure_sealevel;temperature;humidity
74310;BME280;62722;51.142;17.052;2022-11-13T00:00:40;102034.84;;;8.38;91.07
74310;BME280;62722;51.142;17.052;2022-11-13T00:03:22;102032.19;;;8.38;90.82
74310;BME280;62722;51.142;17.052;2022-11-13T00:05:57;102037.50;;;8.37;90.78
74310;BME280;62722;51.142;17.052;2022-11-13T00:08:25;102017.34;;;8.36;90.84
74310;BME280;62722;51.142;17.052;2022-11-13T00:10:59;102026.94;;;8.38;90.71
74310;BME280;62722;51.142;17.052;2022-11-13T00:13:26;102017.41;;;8.34;90.93
74310;BME280;62722;51.142;17.052;2022-11-13T00:15:59;102023.34;;;8.41;90.91
74310;BME280;62722;51.142;17.052;2022-11-13T00:18:27;102027.66;;;8.43;90.89
74310;BME280;62722;51.142;17.052;2022-11-13T00:20:56;102027.75;;;8.40;90.77
74310;BME280;62722;51.142;17.052;2022-11-13T00:23:23;102027.84;;;8.37;90.52
74310;BME280;62722;51.142;17.052;2022-11-13T00:25:51;102037.59;;;8.34;90.72
74310;BME280;62722;51.142;17.052;2022-11-13T00:28:18;102027.97;;;8.32;91.33
74310;BME280;62722;51.142;17.052;2022-11-13T00:30:45;102023.53;;;8.35;91.18
74310;BME280;62722;51.142;17.052;2022-11-13T00:33:13;102035.63;;;8.40;91.22
74310;BME280;62722;51.142;17.052;2022-11-13T00:35:40;102042.63;;;8.41;90.30
74310;BME280;62722;51.142;17.052;2022-11-13T00:38:08;102034.78;;;8.40;90.63
74310;BME280;62722;51.142;17.052;2022-11-13T00:40:35;102034.75;;;8.41;90.83
74310;BME280;62722;51.142;17.052;2022-11-13T00:43:02;102029.41;;;8.43;90.83
74310;BME280;62722;51.142;17.052;2022-11-13T00:45:29;102030.34;;;8.42;90.20
74310;BME280;62722;51.142;17.052;2022-11-13T00:47:56;102023.56;;;8.33;90.56
74310;BME280;62722;51.142;17.052;2022-11-13T00:50:26;102026.31;;;8.28;90.69
74310;BME280;62722;51.142;17.052;2022-11-13T00:52:54;102018.47;;;8.27;91.25
74310;BME280;62722;51.142;17.052;2022-11-13T00:55:21;102018.44;;;8.28;90.39
74310;BME280;62722;51.142;17.052;2022-11-13T00:57:48;102017.59;;;8.26;90.54
74310;BME280;62722;51.142;17.052;2022-11-13T01:00:16;102020.22;;;8.26;90.74
74310;BME280;62722;51.142;17.052;2022-11-13T01:02:43;102012.31;;;8.26;90.02
74310;BME280;62722;51.142;17.052;2022-11-13T01:05:10;102005.41;;;8.24;90.40
74310;BME280;62722;51.142;17.052;2022-11-13T01:07:38;101994.00;;;8.23;90.49
74310;BME280;62722;51.142;17.052;2022-11-13T01:10:06;102001.72;;;8.31;90.30
74310;BME280;62722;51.142;17.052;2022-11-13T01:12:34;101997.13;;;8.38;90.26
74310;BME280;62722;51.142;17.052;2022-11-13T01:15:01;102003.34;;;8.35;89.46
74310;BME280;62722;51.142;17.052;2022-11-13T01:17:28;101995.59;;;8.30;89.33
74310;BME280;62722;51.142;17.052;2022-11-13T01:19:56;101996.47;;;8.31;90.22
74310;BME280;62722;51.142;17.052;2022-11-13T01:22:23;101987.75;;;8.27;89.63
74310;BME280;62722;51.142;17.052;2022-11-13T01:24:51;101978.25;;;8.22;89.40
74310;BME280;62722;51.142;17.052;2022-11-13T01:27:18;101981.06;;;8.16;89.69
74310;BME280;62722;51.142;17.052;2022-11-13T01:29:46;101982.78;;;8.17;89.78
74310;BME280;62722;51.142;17.052;2022-11-13T01:32:13;101980.13;;;8.18;89.91
74310;BME280;62722;51.142;17.052;2022-11-13T01:34:40;101975.84;;;8.14;89.57
74310;BME280;62722;51.142;17.052;2022-11-13T01:37:07;101975.97;;;8.10;89.46
74310;BME280;62722;51.142;17.052;2022-11-13T01:39:34;101970.72;;;8.10;89.28
74310;BME280;62722;51.142;17.052;2022-11-13T01:42:03;101964.66;;;8.06;89.32
74310;BME280;62722;51.142;17.052;2022-11-13T01:44:46;101975.28;;;8.03;89.73
74310;BME280;62722;51.142;17.052;2022-11-13T01:47:15;101967.38;;;8.05;89.54
74310;BME280;62722;51.142;17.052;2022-11-13T01:49:43;101965.63;;;8.04;89.58
74310;BME280;62722;51.142;17.052;2022-11-13T01:52:14;101963.81;;;8.06;89.65
74310;BME280;62722;51.142;17.052;2022-11-13T01:54:46;101959.38;;;8.08;89.81
74310;BME280;62722;51.142;17.052;2022-11-13T01:57:16;101955.13;;;8.04;89.72
74310;BME280;62722;51.142;17.052;2022-11-13T01:59:48;101949.84;;;8.04;90.11
74310;BME280;62722;51.142;17.052;2022-11-13T02:02:16;101956.00;;;8.03;90.07
74310;BME280;62722;51.142;17.052;2022-11-13T02:04:43;101951.75;;;7.99;89.32
74310;BME280;62722;51.142;17.052;2022-11-13T02:07:13;101950.03;;;7.98;89.20
74310;BME280;62722;51.142;17.052;2022-11-13T02:09:43;101951.75;;;7.99;89.09
74310;BME280;62722;51.142;17.052;2022-11-13T02:12:13;101950.88;;;7.98;89.53
74310;BME280;62722;51.142;17.052;2022-11-13T02:14:45;101960.59;;;7.96;89.59
74310;BME280;62722;51.142;17.052;2022-11-13T02:17:15;101952.91;;;7.89;89.17
74310;BME280;62722;51.142;17.052;2022-11-13T02:19:47;101951.13;;;7.91;89.44
74310;BME280;62722;51.142;17.052;2022-11-13T02:22:19;101951.06;;;7.92;89.42
74310;BME280;62722;51.142;17.052;2022-11-13T02:24:52;101945.81;;;7.92;89.57
74310;BME280;62722;51.142;17.052;2022-11-13T02:27:23;101951.03;;;7.94;89.66
74310;BME280;62722;51.142;17.052;2022-11-13T02:29:52;101945.69;;;7.97;89.29
74310;BME280;62722;51.142;17.052;2022-11-13T02:32:19;101949.19;;;7.96;89.21
74310;BME280;62722;51.142;17.052;2022-11-13T02:34:46;101937.72;;;7.98;89.67
74310;BME280;62722;51.142;17.052;2022-11-13T02:37:13;101933.44;;;7.96;89.62
74310;BME280;62722;51.142;17.052;2022-11-13T02:39:40;101929.94;;;7.95;89.46
74310;BME280;62722;51.142;17.052;2022-11-13T02:42:09;101932.44;;;8.00;89.41
74310;BME280;62722;51.142;17.052;2022-11-13T02:44:36;101921.13;;;7.98;89.05
74310;BME280;62722;51.142;17.052;2022-11-13T02:47:03;101930.81;;;7.96;89.15
74310;BME280;62722;51.142;17.052;2022-11-13T02:49:30;101923.03;;;7.91;89.18
74310;BME280;62722;51.142;17.052;2022-11-13T02:51:58;101918.72;;;7.90;89.19
74310;BME280;62722;51.142;17.052;2022-11-13T02:54:25;101923.03;;;7.91;89.16
74310;BME280;62722;51.142;17.052;2022-11-13T02:56:52;101922.09;;;7.94;88.96
74310;BME280;62722;51.142;17.052;2022-11-13T02:59:20;101918.50;;;7.98;88.84
74310;BME280;62722;51.142;17.052;2022-11-13T03:01:47;101906.25;;;7.97;88.73
74310;BME280;62722;51.142;17.052;2022-11-13T03:04:14;101908.75;;;8.01;88.72
74310;BME280;62722;51.142;17.052;2022-11-13T03:06:42;101914.78;;;8.05;88.46
74310;BME280;62722;51.142;17.052;2022-11-13T03:09:09;101910.38;;;8.05;88.26
74310;BME280;62722;51.142;17.052;2022-11-13T03:11:36;101900.03;;;7.99;87.71
74310;BME280;62722;51.142;17.052;2022-11-13T03:14:03;101898.28;;;7.98;88.37
74310;BME280;62722;51.142;17.052;2022-11-13T03:16:33;101905.34;;;7.98;88.48
74310;BME280;62722;51.142;17.052;2022-11-13T03:19:00;101901.78;;;7.99;88.23
74310;BME280;62722;51.142;17.052;2022-11-13T03:21:27;101906.25;;;7.97;88.39
74310;BME280;62722;51.142;17.052;2022-11-13T03:23:56;101895.75;;;7.95;88.62
74310;BME280;62722;51.142;17.052;2022-11-13T03:26:24;101896.63;;;7.96;88.53
74310;BME280;62722;51.142;17.052;2022-11-13T03:28:53;101900.25;;;7.92;88.27
74310;BME280;62722;51.142;17.052;2022-11-13T03:31:20;101895.91;;;7.91;88.73
74310;BME280;62722;51.142;17.052;2022-11-13T03:33:51;101891.59;;;7.88;88.98
74310;BME280;62722;51.142;17.052;2022-11-13T03:36:18;101887.28;;;7.86;88.75
74310;BME280;62722;51.142;17.052;2022-11-13T03:38:45;101883.75;;;7.87;88.96
74310;BME280;62722;51.142;17.052;2022-11-13T03:41:12;101888.16;;;7.86;88.87
74310;BME280;62722;51.142;17.052;2022-11-13T03:43:40;101885.56;;;7.84;88.96
74310;BME280;62722;51.142;17.052;2022-11-13T03:46:07;101883.88;;;7.82;89.21
74310;BME280;62722;51.142;17.052;2022-11-13T03:48:35;101878.63;;;7.82;89.22
74310;BME280;62722;51.142;17.052;2022-11-13T03:51:04;101883.75;;;7.87;89.42
74310;BME280;62722;51.142;17.052;2022-11-13T03:53:31;101876.69;;;7.89;89.57
74310;BME280;62722;51.142;17.052;2022-11-13T03:55:58;101877.41;;;7.94;89.04
74310;BME280;62722;51.142;17.052;2022-11-13T03:58:25;101875.66;;;7.94;88.63
74310;BME280;62722;51.142;17.052;2022-11-13T04:00:53;101871.31;;;7.92;88.89
74310;BME280;62722;51.142;17.052;2022-11-13T04:03:20;101876.59;;;7.92;89.35
74310;BME280;62722;51.142;17.052;2022-11-13T04:05:48;101870.53;;;7.90;89.25
74310;BME280;62722;51.142;17.052;2022-11-13T04:08:17;101871.31;;;7.92;88.78
74310;BME280;62722;51.142;17.052;2022-11-13T04:10:45;101876.59;;;7.92;89.00
74310;BME280;62722;51.142;17.052;2022-11-13T04:13:12;101876.69;;;7.89;89.13
74310;BME280;62722;51.142;17.052;2022-11-13T04:15:39;101887.28;;;7.86;89.31
74310;BME280;62722;51.142;17.052;2022-11-13T04:18:06;101888.16;;;7.86;89.43
74310;BME280;62722;51.142;17.052;2022-11-13T04:20:33;101893.31;;;7.89;89.37
74310;BME280;62722;51.142;17.052;2022-11-13T04:23:01;101889.78;;;7.90;89.06
74310;BME280;62722;51.142;17.052;2022-11-13T04:25:33;101891.66;;;7.87;88.79
74310;BME280;62722;51.142;17.052;2022-11-13T04:28:00;101893.31;;;7.89;88.79
74310;BME280;62722;51.142;17.052;2022-11-13T04:30:28;101894.97;;;7.92;88.97
74310;BME280;62722;51.142;17.052;2022-11-13T04:32:55;101884.47;;;7.92;88.92
74310;BME280;62722;51.142;17.052;2022-11-13T04:35:22;101887.16;;;7.90;89.03
74310;BME280;62722;51.142;17.052;2022-11-13T04:37:49;101885.44;;;7.89;88.64
74310;BME280;62722;51.142;17.052;2022-11-13T04:40:17;101888.94;;;7.90;88.20
74310;BME280;62722;51.142;17.052;2022-11-13T04:42:45;101892.53;;;7.86;88.48
74310;BME280;62722;51.142;17.052;2022-11-13T04:45:15;101893.50;;;7.83;88.74
74310;BME280;62722;51.142;17.052;2022-11-13T04:47:43;101890.00;;;7.82;88.82
74310;BME280;62722;51.142;17.052;2022-11-13T04:50:10;101896.16;;;7.81;88.71
74310;BME280;62722;51.142;17.052;2022-11-13T04:52:38;101890.03;;;7.81;88.85
74310;BME280;62722;51.142;17.052;2022-11-13T04:55:06;101892.72;;;7.79;88.27
74310;BME280;62722;51.142;17.052;2022-11-13T04:57:33;101897.22;;;7.76;88.41
74310;BME280;62722;51.142;17.052;2022-11-13T05:00:03;101893.72;;;7.75;88.30
74310;BME280;62722;51.142;17.052;2022-11-13T05:02:31;101898.97;;;7.75;88.46
74310;BME280;62722;51.142;17.052;2022-11-13T05:04:58;101898.00;;;7.78;88.59
74310;BME280;62722;51.142;17.052;2022-11-13T05:07:26;101894.53;;;7.77;88.29
74310;BME280;62722;51.142;17.052;2022-11-13T05:09:54;101895.34;;;7.79;88.45
74310;BME280;62722;51.142;17.052;2022-11-13T05:12:21;101888.28;;;7.81;88.11
74310;BME280;62722;51.142;17.052;2022-11-13T05:14:48;101892.63;;;7.82;88.08
74310;BME280;62722;51.142;17.052;2022-11-13T05:17:17;101893.53;;;7.81;88.25
74310;BME280;62722;51.142;17.052;2022-11-13T05:19:44;101890.91;;;7.81;88.37
74310;BME280;62722;51.142;17.052;2022-11-13T05:22:11;101897.88;;;7.82;88.17
74310;BME280;62722;51.142;17.052;2022-11-13T05:24:38;101898.78;;;7.81;88.25
74310;BME280;62722;51.142;17.052;2022-11-13T05:27:05;101887.38;;;7.82;88.53
74310;BME280;62722;51.142;17.052;2022-11-13T05:29:32;101892.63;;;7.82;88.36
74310;BME280;62722;51.142;17.052;2022-11-13T05:31:59;101896.97;;;7.83;88.14
74310;BME280;62722;51.142;17.052;2022-11-13T05:34:28;101894.41;;;7.82;88.22
74310;BME280;62722;51.142;17.052;2022-11-13T05:36:55;101883.03;;;7.80;88.54
74310;BME280;62722;51.142;17.052;2022-11-13T05:39:22;101887.53;;;7.76;88.31
74310;BME280;62722;51.142;17.052;2022-11-13T05:41:49;101889.22;;;7.79;88.82
74310;BME280;62722;51.142;17.052;2022-11-13T05:44:16;101885.75;;;7.78;88.76
74310;BME280;62722;51.142;17.052;2022-11-13T05:46:44;101886.69;;;7.76;89.01
74310;BME280;62722;51.142;17.052;2022-11-13T05:49:11;101882.38;;;7.73;89.05
74310;BME280;62722;51.142;17.052;2022-11-13T05:51:39;101882.28;;;7.76;89.31
74310;BME280;62722;51.142;17.052;2022-11-13T05:54:07;101878.81;;;7.76;89.00
74310;BME280;62722;51.142;17.052;2022-11-13T05:56:35;101875.38;;;7.72;89.09
74310;BME280;62722;51.142;17.052;2022-11-13T05:59:03;101875.47;;;7.69;89.28
74310;BME280;62722;51.142;17.052;2022-11-13T06:01:32;101877.16;;;7.72;89.16
74310;BME280;62722;51.142;17.052;2022-11-13T06:04:00;101866.69;;;7.70;88.88
74310;BME280;62722;51.142;17.052;2022-11-13T06:06:29;101862.41;;;7.68;89.29
74310;BME280;62722;51.142;17.052;2022-11-13T06:08:59;101865.03;;;7.68;89.42
74310;BME280;62722;51.142;17.052;2022-11-13T06:11:28;101860.63;;;7.68;89.60
74310;BME280;62722;51.142;17.052;2022-11-13T06:13:56;101871.13;;;7.68;89.32
74310;BME280;62722;51.142;17.052;2022-11-13T06:16:25;101856.38;;;7.64;89.47
74310;BME280;62722;51.142;17.052;2022-11-13T06:18:54;101865.94;;;7.65;89.49
74310;BME280;62722;51.142;17.052;2022-11-13T06:21:26;101850.25;;;7.64;89.42
74310;BME280;62722;51.142;17.052;2022-11-13T06:23:53;101864.41;;;7.58;89.71
74310;BME280;62722;51.142;17.052;2022-11-13T06:26:23;101865.38;;;7.54;89.77
74310;BME280;62722;51.142;17.052;2022-11-13T06:28:51;101867.13;;;7.55;89.91
74310;BME280;62722;51.142;17.052;2022-11-13T06:31:20;101857.47;;;7.56;90.08
74310;BME280;62722;51.142;17.052;2022-11-13T06:33:47;101867.13;;;7.55;89.84
74310;BME280;62722;51.142;17.052;2022-11-13T06:36:18;101865.34;;;7.56;90.28
74310;BME280;62722;51.142;17.052;2022-11-13T06:38:45;101868.84;;;7.56;90.61
74310;BME280;62722;51.142;17.052;2022-11-13T06:41:15;101867.19;;;7.52;90.13
74310;BME280;62722;51.142;17.052;2022-11-13T06:43:44;101861.94;;;7.52;90.65
74310;BME280;62722;51.142;17.052;2022-11-13T06:46:13;101861.91;;;7.54;90.73
74310;BME280;62722;51.142;17.052;2022-11-13T06:48:41;101859.22;;;7.55;90.57
74310;BME280;62722;51.142;17.052;2022-11-13T06:51:12;101852.19;;;7.57;90.88
74310;BME280;62722;51.142;17.052;2022-11-13T06:53:39;101859.13;;;7.58;90.65
74310;BME280;62722;51.142;17.052;2022-11-13T06:56:07;101859.97;;;7.60;90.41
74310;BME280;62722;51.142;17.052;2022-11-13T06:58:34;101849.47;;;7.60;90.52
74310;BME280;62722;51.142;17.052;2022-11-13T07:01:07;101859.88;;;7.63;90.86
74310;BME280;62722;51.142;17.052;2022-11-13T07:03:34;101855.50;;;7.64;90.33
74310;BME280;62722;51.142;17.052;2022-11-13T07:06:02;101859.00;;;7.64;90.49
74310;BME280;62722;51.142;17.052;2022-11-13T07:08:30;101861.63;;;7.64;90.42
74310;BME280;62722;51.142;17.052;2022-11-13T07:10:57;101859.06;;;7.61;90.70
74310;BME280;62722;51.142;17.052;2022-11-13T07:13:25;101859.03;;;7.63;90.93
74310;BME280;62722;51.142;17.052;2022-11-13T07:15:53;101852.97;;;7.61;90.43
74310;BME280;62722;51.142;17.052;2022-11-13T07:18:22;101852.09;;;7.60;90.74
74310;BME280;62722;51.142;17.052;2022-11-13T07:20:48;101859.13;;;7.60;90.72
74310;BME280;62722;51.142;17.052;2022-11-13T07:23:16;101859.97;;;7.60;91.01
74310;BME280;62722;51.142;17.052;2022-11-13T07:25:43;101849.63;;;7.54;90.56
74310;BME280;62722;51.142;17.052;2022-11-13T07:28:10;101852.19;;;7.57;90.72
74310;BME280;62722;51.142;17.052;2022-11-13T07:30:38;101850.34;;;7.61;90.40
74310;BME280;62722;51.142;17.052;2022-11-13T07:33:05;101851.13;;;7.63;90.11
74310;BME280;62722;51.142;17.052;2022-11-13T07:35:33;101856.50;;;7.58;90.05
74310;BME280;62722;51.142;17.052;2022-11-13T07:38:00;101851.16;;;7.61;90.24
74310;BME280;62722;51.142;17.052;2022-11-13T07:40:28;101840.75;;;7.58;89.93
74310;BME280;62722;51.142;17.052;2022-11-13T07:42:57;101833.78;;;7.57;90.11
74310;BME280;62722;51.142;17.052;2022-11-13T07:45:25;101836.34;;;7.59;89.41
74310;BME280;62722;51.142;17.052;2022-11-13T07:47:56;101832.84;;;7.60;89.37
74310;BME280;62722;51.142;17.052;2022-11-13T07:50:25;101842.28;;;7.65;89.35
74310;BME280;62722;51.142;17.052;2022-11-13T07:52:56;101842.03;;;7.74;89.46
74310;BME280;62722;51.142;17.052;2022-11-13T07:55:23;101844.59;;;7.77;88.88
74310;BME280;62722;51.142;17.052;2022-11-13T07:57:53;101845.31;;;7.82;88.47
74310;BME280;62722;51.142;17.052;2022-11-13T08:00:21;101843.34;;;7.91;88.36
74310;BME280;62722;51.142;17.052;2022-11-13T08:02:48;101848.50;;;7.94;88.30
74310;BME280;62722;51.142;17.052;2022-11-13T08:05:15;101841.41;;;7.96;88.36
74310;BME280;62722;51.142;17.052;2022-11-13T08:07:45;101855.22;;;8.02;87.51
74310;BME280;62722;51.142;17.052;2022-11-13T08:10:14;101851.84;;;7.99;87.72
74310;BME280;62722;51.142;17.052;2022-11-13T08:12:42;101846.66;;;7.96;88.02
74310;BME280;62722;51.142;17.052;2022-11-13T08:15:10;101845.03;;;7.92;87.94
74310;BME280;62722;51.142;17.052;2022-11-13T08:17:37;101839.88;;;7.89;88.33
74310;BME280;62722;51.142;17.052;2022-11-13T08:20:05;101840.78;;;7.88;88.04
74310;BME280;62722;51.142;17.052;2022-11-13T08:22:33;101844.16;;;7.91;88.28
74310;BME280;62722;51.142;17.052;2022-11-13T08:25:01;101849.16;;;8.00;88.17
74310;BME280;62722;51.142;17.052;2022-11-13T08:27:29;101857.09;;;7.99;87.60
74310;BME280;62722;51.142;17.052;2022-11-13T08:29:57;101846.44;;;8.03;87.96
74310;BME280;62722;51.142;17.052;2022-11-13T08:32:24;101850.72;;;8.07;87.82
74310;BME280;62722;51.142;17.052;2022-11-13T08:34:51;101856.72;;;8.11;87.53
74310;BME280;62722;51.142;17.052;2022-11-13T08:37:18;101855.00;;;8.10;87.53
74310;BME280;62722;51.142;17.052;2022-11-13T08:39:46;101851.56;;;8.08;87.50
74310;BME280;62722;51.142;17.052;2022-11-13T08:42:13;101853.09;;;8.15;87.47
74310;BME280;62722;51.142;17.052;2022-11-13T08:44:41;101839.69;;;8.24;87.77
74310;BME280;62722;51.142;17.052;2022-11-13T08:47:08;101851.00;;;8.26;87.01
74310;BME280;62722;51.142;17.052;2022-11-13T08:49:36;101845.75;;;8.26;86.51
74310;BME280;62722;51.142;17.052;2022-11-13T08:52:03;101849.38;;;8.22;86.82
74310;BME280;62722;51.142;17.052;2022-11-13T08:54:32;101843.16;;;8.24;87.37
74310;BME280;62722;51.142;17.052;2022-11-13T08:56:59;101850.16;;;8.25;86.84
74310;BME280;62722;51.142;17.052;2022-11-13T08:59:26;101855.53;;;8.21;87.16
74310;BME280;62722;51.142;17.052;2022-11-13T09:01:54;101853.78;;;8.21;87.23
74310;BME280;62722;51.142;17.052;2022-11-13T09:04:24;101853.69;;;8.24;87.08
74310;BME280;62722;51.142;17.052;2022-11-13T09:06:52;101853.47;;;8.32;87.43
74310;BME280;62722;51.142;17.052;2022-11-13T09:09:19;101855.22;;;8.33;87.09
74310;BME280;62722;51.142;17.052;2022-11-13T09:11:47;101848.97;;;8.36;86.76
74310;BME280;62722;51.142;17.052;2022-11-13T09:14:14;101861.00;;;8.44;86.88
74310;BME280;62722;51.142;17.052;2022-11-13T09:16:41;101850.50;;;8.43;86.66
74310;BME280;62722;51.142;17.052;2022-11-13T09:19:10;101854.94;;;8.42;86.27
74310;BME280;62722;51.142;17.052;2022-11-13T09:21:38;101861.09;;;8.41;86.40
74310;BME280;62722;51.142;17.052;2022-11-13T09:24:05;101859.16;;;8.46;85.61
74310;BME280;62722;51.142;17.052;2022-11-13T09:26:33;101857.34;;;8.48;85.87
74310;BME280;62722;51.142;17.052;2022-11-13T09:29:00;101855.53;;;8.50;85.69
74310;BME280;62722;51.142;17.052;2022-11-13T09:31:27;101857.88;;;8.59;85.51
74310;BME280;62722;51.142;17.052;2022-11-13T09:33:55;101857.63;;;8.67;85.21
74310;BME280;62722;51.142;17.052;2022-11-13T09:36:23;101853.03;;;8.73;85.09
74310;BME280;62722;51.142;17.052;2022-11-13T09:38:50;101860.06;;;8.73;85.05
74310;BME280;62722;51.142;17.052;2022-11-13T09:41:20;101850.50;;;8.70;84.93
74310;BME280;62722;51.142;17.052;2022-11-13T09:43:51;101848.84;;;8.68;84.81
74310;BME280;62722;51.142;17.052;2022-11-13T09:46:23;101859.00;;;8.52;85.00
74310;BME280;62722;51.142;17.052;2022-11-13T09:48:59;101856.53;;;8.46;85.37
74310;BME280;62722;51.142;17.052;2022-11-13T09:51:32;101852.31;;;8.42;85.56
74310;BME280;62722;51.142;17.052;2022-11-13T09:54:06;101845.09;;;8.47;86.11
74310;BME280;62722;51.142;17.052;2022-11-13T09:56:35;101846.63;;;8.54;85.80
74310;BME280;62722;51.142;17.052;2022-11-13T09:59:12;101849.13;;;8.59;85.04
74310;BME280;62722;51.142;17.052;2022-11-13T10:01:48;101845.44;;;8.64;85.16
74310;BME280;62722;51.142;17.052;2022-11-13T10:04:23;101849.75;;;8.67;85.15
74310;BME280;62722;51.142;17.052;2022-11-13T10:07:08;101840.84;;;8.71;85.21
74310;BME280;62722;51.142;17.052;2022-11-13T10:09:48;101847.81;;;8.72;84.73
74310;BME280;62722;51.142;17.052;2022-11-13T10:12:20;101837.63;;;8.61;84.89
74310;BME280;62722;51.142;17.052;2022-11-13T10:14:52;101837.94;;;8.52;85.23
74310;BME280;62722;51.142;17.052;2022-11-13T10:17:21;101845.97;;;8.48;85.88
74310;BME280;62722;51.142;17.052;2022-11-13T10:19:56;101846.72;;;8.51;85.82
74310;BME280;62722;51.142;17.052;2022-11-13T10:22:29;101843.09;;;8.55;85.89
74310;BME280;62722;51.142;17.052;2022-11-13T10:25:03;101837.81;;;8.55;86.15
74310;BME280;62722;51.142;17.052;2022-11-13T10:27:30;101840.34;;;8.58;85.95
74310;BME280;62722;51.142;17.052;2022-11-13T10:29:58;101827.09;;;8.61;86.16
74310;BME280;62722;51.142;17.052;2022-11-13T10:32:28;101824.63;;;8.57;86.15
74310;BME280;62722;51.142;17.052;2022-11-13T10:34:59;101828.94;;;8.59;86.14
74310;BME280;62722;51.142;17.052;2022-11-13T10:37:44;101813.88;;;8.64;86.05
74310;BME280;62722;51.142;17.052;2022-11-13T10:40:23;101815.56;;;8.65;85.61
74310;BME280;62722;51.142;17.052;2022-11-13T10:42:50;101817.44;;;8.62;85.88
74310;BME280;62722;51.142;17.052;2022-11-13T10:45:19;101809.97;;;8.50;86.17
74310;BME280;62722;51.142;17.052;2022-11-13T10:47:48;101813.50;;;8.49;86.77
74310;BME280;62722;51.142;17.052;2022-11-13T10:50:20;101814.34;;;8.49;86.52
74310;BME280;62722;51.142;17.052;2022-11-13T10:52:53;101810.78;;;8.50;87.05
74310;BME280;62722;51.142;17.052;2022-11-13T10:55:25;101807.47;;;8.45;86.25
74310;BME280;62722;51.142;17.052;2022-11-13T10:57:54;101805.88;;;8.40;86.18
74310;BME280;62722;51.142;17.052;2022-11-13T11:00:24;101794.41;;;8.42;86.39
74310;BME280;62722;51.142;17.052;2022-11-13T11:02:52;101806.25;;;8.55;86.21
74310;BME280;62722;51.142;17.052;2022-11-13T11:05:21;101802.81;;;8.53;85.78
74310;BME280;62722;51.142;17.052;2022-11-13T11:07:51;101802.81;;;8.53;86.14
74310;BME280;62722;51.142;17.052;2022-11-13T11:10:27;101806.53;;;8.46;86.19
74310;BME280;62722;51.142;17.052;2022-11-13T11:12:59;101800.50;;;8.43;86.37
74310;BME280;62722;51.142;17.052;2022-11-13T11:15:36;101804.88;;;8.44;86.72
74310;BME280;62722;51.142;17.052;2022-11-13T11:18:17;101806.47;;;8.49;86.24
74310;BME280;62722;51.142;17.052;2022-11-13T11:20:49;101792.19;;;8.56;85.74
74310;BME280;62722;51.142;17.052;2022-11-13T11:23:26;101793.84;;;8.59;85.64
74310;BME280;62722;51.142;17.052;2022-11-13T11:25:59;101798.25;;;8.58;85.15
74310;BME280;62722;51.142;17.052;2022-11-13T11:28:32;101796.47;;;8.59;85.44
74310;BME280;62722;51.142;17.052;2022-11-13T11:31:10;101786.09;;;8.54;85.20
74310;BME280;62722;51.142;17.052;2022-11-13T11:33:48;101782.56;;;8.55;84.87
74310;BME280;62722;51.142;17.052;2022-11-13T11:36:27;101776.59;;;8.50;85.30
74310;BME280;62722;51.142;17.052;2022-11-13T11:39:01;101778.31;;;8.51;85.23
74310;BME280;62722;51.142;17.052;2022-11-13T11:41:54;101767.91;;;8.48;85.22
74310;BME280;62722;51.142;17.052;2022-11-13T11:44:28;101765.50;;;8.41;85.79
74310;BME280;62722;51.142;17.052;2022-11-13T11:46:57;101757.75;;;8.36;86.07
74310;BME280;62722;51.142;17.052;2022-11-13T11:49:25;101756.16;;;8.32;86.25
74310;BME280;62722;51.142;17.052;2022-11-13T11:52:02;101756.97;;;8.34;86.67
74310;BME280;62722;51.142;17.052;2022-11-13T11:54:39;101750.75;;;8.37;86.53
74310;BME280;62722;51.142;17.052;2022-11-13T11:57:17;101747.91;;;8.43;85.92
74310;BME280;62722;51.142;17.052;2022-11-13T11:59:56;101752.91;;;8.50;86.07
74310;BME280;62722;51.142;17.052;2022-11-13T12:02:57;101750.34;;;8.49;85.73
74310;BME280;62722;51.142;17.052;2022-11-13T12:05:29;101745.19;;;8.46;86.13
74310;BME280;62722;51.142;17.052;2022-11-13T12:08:07;101747.06;;;8.42;86.17
74310;BME280;62722;51.142;17.052;2022-11-13T12:10:45;101738.47;;;8.36;85.96
74310;BME280;62722;51.142;17.052;2022-11-13T12:13:26;101737.44;;;8.13;86.50
74310;BME280;62722;51.142;17.052;2022-11-13T12:16:09;101734.34;;;8.01;87.26
74310;BME280;62722;51.142;17.052;2022-11-13T12:18:48;101738.09;;;7.94;87.61
74310;BME280;62722;51.142;17.052;2022-11-13T12:21:25;101724.84;;;7.97;88.11
74310;BME280;62722;51.142;17.052;2022-11-13T12:24:16;101730.72;;;8.05;87.55
74310;BME280;62722;51.142;17.052;2022-11-13T12:26:50;101724.34;;;8.12;87.63
74310;BME280;62722;51.142;17.052;2022-11-13T12:29:36;101726.88;;;8.15;87.13
74310;BME280;62722;51.142;17.052;2022-11-13T12:32:14;101718.88;;;8.18;87.15
74310;BME280;62722;51.142;17.052;2022-11-13T12:34:48;101712.50;;;8.25;86.81
74310;BME280;62722;51.142;17.052;2022-11-13T12:37:23;101713.38;;;8.25;86.57
74310;BME280;62722;51.142;17.052;2022-11-13T12:39:55;101719.50;;;8.26;86.39
74310;BME280;62722;51.142;17.052;2022-11-13T12:42:29;101717.88;;;8.22;86.58
74310;BME280;62722;51.142;17.052;2022-11-13T12:45:06;101714.53;;;8.17;86.70
74310;BME280;62722;51.142;17.052;2022-11-13T12:47:35;101712.13;;;8.09;87.68
74310;BME280;62722;51.142;17.052;2022-11-13T12:50:04;101708.59;;;8.10;87.51
74310;BME280;62722;51.142;17.052;2022-11-13T12:52:32;101711.09;;;8.15;87.39
74310;BME280;62722;51.142;17.052;2022-11-13T12:55:04;101704.84;;;8.19;87.12
74310;BME280;62722;51.142;17.052;2022-11-13T12:57:34;101697.84;;;8.18;87.11
74310;BME280;62722;51.142;17.052;2022-11-13T13:00:22;101697.09;;;8.14;87.44
74310;BME280;62722;51.142;17.052;2022-11-13T13:02:55;101688.19;;;8.18;87.58